createdAt,value
2019-05-11T00:01:21.156Z,28.47
2019-05-11T00:03:50.528Z,25.97
2019-05-11T00:06:19.881Z,29.30
2019-05-11T00:08:49.224Z,27.95
2019-05-11T00:11:18.567Z,28.12
2019-05-11T00:13:48.186Z,29.72
2019-05-11T00:16:19.203Z,29.60
2019-05-11T00:18:48.597Z,25.97
2019-05-11T00:21:17.919Z,29.30
2019-05-11T00:23:48.469Z,25.88
2019-05-11T00:26:17.834Z,27.42
2019-05-11T00:28:47.135Z,32.90
2019-05-11T00:31:16.435Z,30.02
2019-05-11T00:33:45.806Z,30.32
2019-05-11T00:36:15.130Z,32.55
2019-05-11T00:38:44.451Z,31.10
2019-05-11T00:41:13.822Z,29.92
2019-05-11T00:43:43.120Z,32.95
2019-05-11T00:46:12.684Z,30.10
2019-05-11T00:48:42.293Z,29.52
2019-05-11T00:51:11.644Z,31.77
2019-05-11T00:53:40.908Z,30.75
2019-05-11T00:56:10.284Z,30.55
2019-05-11T00:58:39.684Z,30.15
2019-05-11T01:01:09.051Z,30.65
2019-05-11T01:03:38.429Z,31.33
2019-05-11T01:06:07.735Z,31.60
2019-05-11T01:08:37.033Z,30.15
2019-05-11T01:11:06.387Z,32.23
2019-05-11T01:13:35.744Z,31.95
2019-05-11T01:16:06.900Z,29.72
2019-05-11T01:18:36.364Z,32.67
2019-05-11T01:21:05.618Z,35.52
2019-05-11T01:23:34.925Z,32.53
2019-05-11T01:26:04.296Z,31.25
2019-05-11T01:28:33.605Z,31.15
2019-05-11T01:31:02.907Z,29.92
2019-05-11T01:33:32.274Z,29.10
2019-05-11T01:36:01.573Z,31.87
2019-05-11T01:38:30.876Z,31.27
2019-05-11T01:41:00.865Z,32.03
2019-05-11T01:43:30.477Z,33.60
2019-05-11T01:45:59.789Z,29.82
2019-05-11T01:48:29.482Z,33.33
2019-05-11T01:50:58.777Z,32.35
2019-05-11T01:53:28.096Z,34.10
2019-05-11T01:55:57.451Z,31.33
2019-05-11T01:58:26.765Z,32.73
2019-05-11T02:00:56.097Z,32.58
2019-05-11T02:03:25.456Z,29.72
2019-05-11T02:05:55.090Z,32.93
2019-05-11T02:08:24.403Z,32.67
2019-05-11T02:10:53.776Z,33.98
2019-05-11T02:13:23.884Z,34.23
2019-05-11T02:15:56.080Z,32.05
2019-05-11T02:18:25.454Z,31.82
2019-05-11T02:20:54.804Z,35.70
2019-05-11T02:23:24.099Z,35.28
2019-05-11T02:25:53.688Z,37.60
2019-05-11T02:28:23.060Z,32.05
2019-05-11T02:30:52.366Z,33.70
2019-05-11T02:33:22.000Z,33.60
2019-05-11T02:35:51.602Z,35.20
2019-05-11T02:38:20.923Z,34.70
2019-05-11T02:40:50.229Z,33.92
2019-05-11T02:43:21.233Z,39.80
2019-05-11T02:45:50.618Z,34.80
2019-05-11T02:48:19.968Z,38.33
2019-05-11T02:50:51.646Z,36.30
2019-05-11T02:53:22.061Z,36.33
2019-05-11T02:55:52.877Z,36.68
2019-05-11T02:58:23.026Z,33.25
2019-05-11T03:00:52.336Z,33.55
2019-05-11T03:03:21.637Z,39.63
2019-05-11T03:05:51.025Z,34.75
2019-05-11T03:08:20.334Z,35.60
2019-05-11T03:10:49.635Z,34.88
2019-05-11T03:13:20.994Z,33.50
2019-05-11T03:15:50.297Z,34.43
2019-05-11T03:18:19.595Z,36.10
2019-05-11T03:20:49.273Z,36.38
2019-05-11T03:23:18.565Z,34.48
2019-05-11T03:25:47.864Z,33.40
2019-05-11T03:28:17.556Z,33.90
2019-05-11T03:30:46.863Z,34.30
2019-05-11T03:33:16.163Z,35.40
2019-05-11T03:35:45.515Z,37.13
2019-05-11T03:38:14.809Z,34.88
2019-05-11T03:40:44.117Z,33.90
2019-05-11T03:43:13.800Z,40.98
2019-05-11T03:45:43.102Z,38.33
2019-05-11T03:48:12.391Z,32.78
2019-05-11T03:50:41.809Z,34.63
2019-05-11T03:53:11.120Z,32.73
2019-05-11T03:55:40.419Z,33.67
2019-05-11T03:58:10.045Z,34.83
2019-05-11T04:00:39.342Z,33.67
2019-05-11T04:03:08.749Z,33.73
2019-05-11T04:05:38.111Z,33.85
2019-05-11T04:08:07.714Z,33.23
2019-05-11T04:10:37.339Z,33.28
2019-05-11T04:13:06.855Z,33.28
2019-05-11T04:15:36.185Z,31.75
2019-05-11T04:18:05.551Z,34.80
2019-05-11T04:20:34.939Z,30.88
2019-05-11T04:23:04.244Z,33.30
2019-05-11T04:25:33.554Z,36.75
2019-05-11T04:28:02.899Z,34.00
2019-05-11T04:30:32.291Z,34.23
2019-05-11T04:33:01.889Z,34.90
2019-05-11T04:35:31.196Z,33.50
2019-05-11T04:38:00.512Z,35.70
2019-05-11T04:40:30.934Z,32.45
2019-05-11T04:43:00.247Z,38.30
2019-05-11T04:45:29.541Z,35.70
2019-05-11T04:47:59.149Z,36.28
2019-05-11T04:50:28.454Z,35.45
2019-05-11T04:52:57.756Z,36.48
2019-05-11T04:55:27.294Z,34.88
2019-05-11T04:57:56.596Z,35.50
2019-05-11T05:00:26.036Z,33.80
2019-05-11T05:02:55.392Z,33.42
2019-05-11T05:05:24.685Z,34.80
2019-05-11T05:08:08.255Z,36.28
2019-05-11T05:10:25.069Z,38.35
2019-05-11T05:13:08.518Z,39.27
2019-05-11T05:15:25.738Z,37.93
2019-05-11T05:17:55.106Z,38.55
2019-05-11T05:20:24.405Z,38.98
2019-05-11T05:22:53.701Z,41.42
2019-05-11T05:25:23.078Z,38.35
2019-05-11T05:27:52.373Z,38.98
2019-05-11T05:30:21.752Z,36.15
2019-05-11T05:32:51.107Z,42.40
2019-05-11T05:35:20.425Z,38.05
2019-05-11T05:37:50.071Z,43.20
2019-05-11T05:40:19.727Z,40.73
2019-05-11T05:42:49.032Z,40.43
2019-05-11T05:45:18.401Z,41.35
2019-05-11T05:47:47.748Z,39.08
2019-05-11T05:50:17.545Z,40.50
2019-05-11T05:52:46.863Z,40.90
2019-05-11T05:55:16.369Z,40.25
2019-05-11T05:57:45.662Z,38.58
2019-05-11T06:00:15.509Z,39.55
2019-05-11T06:02:45.261Z,44.67
2019-05-11T06:05:14.487Z,43.58
2019-05-11T06:07:43.867Z,44.23
2019-05-11T06:10:14.021Z,46.13
2019-05-11T06:12:43.326Z,41.77
2019-05-11T06:15:13.968Z,43.00
2019-05-11T06:17:43.335Z,45.92
2019-05-11T06:20:13.149Z,44.58
2019-05-11T06:22:42.799Z,45.43
2019-05-11T06:25:12.407Z,46.80
2019-05-11T06:27:42.050Z,47.20
2019-05-11T06:30:11.857Z,47.30
2019-05-11T06:32:41.239Z,48.73
2019-05-11T06:35:14.344Z,43.92
2019-05-11T06:37:43.691Z,45.38
2019-05-11T06:40:13.963Z,48.15
2019-05-11T06:42:43.288Z,46.20
2019-05-11T06:45:12.776Z,43.92
2019-05-11T06:47:42.087Z,42.58
2019-05-11T06:50:11.817Z,45.55
2019-05-11T06:52:41.191Z,44.48
2019-05-11T06:55:10.935Z,44.15
2019-05-11T06:57:40.564Z,45.85
2019-05-11T07:00:10.839Z,47.55
2019-05-11T07:02:40.401Z,49.53
2019-05-11T07:05:09.709Z,48.15
2019-05-11T07:07:47.489Z,52.13
2019-05-11T07:10:11.016Z,50.73
2019-05-11T07:12:40.427Z,49.42
2019-05-11T07:15:11.200Z,51.65
2019-05-11T07:17:40.511Z,52.48
2019-05-11T07:20:10.063Z,53.52
2019-05-11T07:22:42.317Z,55.08
2019-05-11T07:25:11.833Z,52.00
2019-05-11T07:27:42.084Z,58.13
2019-05-11T07:30:12.516Z,54.30
2019-05-11T07:32:41.842Z,55.55
2019-05-11T07:35:11.392Z,61.33
2019-05-11T07:37:40.750Z,56.70
2019-05-11T07:40:10.870Z,55.43
2019-05-11T07:42:40.178Z,61.15
2019-05-11T07:45:10.464Z,55.60
2019-05-11T07:47:39.771Z,55.88
2019-05-11T07:50:10.039Z,58.48
2019-05-11T07:52:39.422Z,55.92
2019-05-11T07:55:09.747Z,56.28
2019-05-11T07:57:39.441Z,53.40
2019-05-11T08:00:09.895Z,56.20
2019-05-11T08:02:39.196Z,49.50
2019-05-11T08:05:09.190Z,47.75
2019-05-11T08:07:38.511Z,47.98
2019-05-11T08:10:10.094Z,43.55
2019-05-11T08:12:39.666Z,42.93
2019-05-11T08:15:13.666Z,48.08
2019-05-11T08:17:40.901Z,45.23
2019-05-11T08:20:11.167Z,47.08
2019-05-11T08:22:40.485Z,43.45
2019-05-11T08:25:10.418Z,42.23
2019-05-11T08:27:39.764Z,39.95
2019-05-11T08:30:12.252Z,39.75
2019-05-11T08:32:45.402Z,36.60
2019-05-11T08:35:15.055Z,33.48
2019-05-11T08:37:44.624Z,36.25
2019-05-11T08:40:18.318Z,36.65
2019-05-11T08:42:48.344Z,40.75
2019-05-11T08:45:24.040Z,38.40
2019-05-11T08:47:49.231Z,38.45
2019-05-11T08:50:19.047Z,39.15
2019-05-11T08:52:48.318Z,37.10
2019-05-11T08:55:19.010Z,35.85
2019-05-11T08:57:48.686Z,36.03
2019-05-11T09:00:18.986Z,35.92
2019-05-11T09:02:50.838Z,36.77
2019-05-11T09:05:19.459Z,40.70
2019-05-11T09:07:48.779Z,40.90
2019-05-11T09:10:18.667Z,37.13
2019-05-11T09:12:49.050Z,36.68
2019-05-11T09:15:32.541Z,36.75
2019-05-11T09:17:49.681Z,35.13
2019-05-11T09:20:19.330Z,33.98
2019-05-11T09:22:48.724Z,33.42
2019-05-11T09:25:18.528Z,30.70
2019-05-11T09:27:48.532Z,27.58
2019-05-11T09:30:18.712Z,31.87
2019-05-11T09:32:48.234Z,30.70
2019-05-11T09:35:18.927Z,26.55
2019-05-11T09:37:49.148Z,28.20
2019-05-11T09:40:20.124Z,31.30
2019-05-11T09:42:49.527Z,26.85
2019-05-11T09:45:19.012Z,29.05
2019-05-11T09:47:48.579Z,25.48
2019-05-11T09:50:18.262Z,26.55
2019-05-11T09:52:48.898Z,23.10
2019-05-11T09:55:19.137Z,23.65
2019-05-11T09:57:49.477Z,32.73
2019-05-11T10:00:20.194Z,27.80
2019-05-11T10:02:49.818Z,24.25
2019-05-11T10:05:22.379Z,28.30
2019-05-11T10:07:51.756Z,30.57
2019-05-11T10:10:21.304Z,28.62
2019-05-11T10:12:53.508Z,31.33
2019-05-11T10:15:23.023Z,29.67
2019-05-11T10:17:52.343Z,29.55
2019-05-11T10:20:21.659Z,31.25
2019-05-11T10:22:51.015Z,25.95
2019-05-11T10:25:20.328Z,27.75
2019-05-11T10:27:49.643Z,28.70
2019-05-11T10:30:19.911Z,30.43
2019-05-11T10:32:49.412Z,25.48
2019-05-11T10:35:18.731Z,23.65
2019-05-11T10:37:48.111Z,28.42
2019-05-11T10:40:19.000Z,21.07
2019-05-11T10:42:48.613Z,25.45
2019-05-11T10:45:18.662Z,22.87
2019-05-11T10:47:48.990Z,22.07
2019-05-11T10:50:18.996Z,22.00
2019-05-11T10:52:48.648Z,23.07
2019-05-11T10:55:19.404Z,17.45
2019-05-11T10:57:49.176Z,22.42
2019-05-11T11:00:20.353Z,16.60
2019-05-11T11:02:49.657Z,21.75
2019-05-11T11:05:19.825Z,19.42
2019-05-11T11:07:49.120Z,18.32
2019-05-11T11:10:18.651Z,20.40
2019-05-11T11:12:49.094Z,20.95
2019-05-11T11:15:19.920Z,17.25
2019-05-11T11:17:49.233Z,21.73
2019-05-11T11:20:19.854Z,19.32
2019-05-11T11:22:49.422Z,18.07
2019-05-11T11:25:18.828Z,18.73
2019-05-11T11:27:48.882Z,18.32
2019-05-11T11:30:19.648Z,18.37
2019-05-11T11:32:48.963Z,21.62
2019-05-11T11:35:18.822Z,18.73
2019-05-11T11:37:48.379Z,16.30
2019-05-11T11:40:18.989Z,17.55
2019-05-11T11:42:48.372Z,17.92
2019-05-11T11:45:18.482Z,17.05
2019-05-11T11:47:49.343Z,18.12
2019-05-11T11:50:19.441Z,16.62
2019-05-11T11:52:48.749Z,18.23
2019-05-11T11:55:18.666Z,15.70
2019-05-11T11:57:50.377Z,17.48
2019-05-11T12:00:20.949Z,18.60
2019-05-11T12:02:50.259Z,17.32
2019-05-11T12:05:19.649Z,19.57
2019-05-11T12:07:49.270Z,15.58
2019-05-11T12:10:18.983Z,14.38
2019-05-11T12:12:48.634Z,15.98
2019-05-11T12:15:18.245Z,19.02
2019-05-11T12:17:48.302Z,17.67
2019-05-11T12:20:18.414Z,16.32
2019-05-11T12:22:47.821Z,15.30
2019-05-11T12:25:18.606Z,16.07
2019-05-11T12:27:49.017Z,14.65
2019-05-11T12:30:19.129Z,13.32
2019-05-11T12:32:50.846Z,12.85
2019-05-11T12:35:20.291Z,15.28
2019-05-11T12:37:49.641Z,16.42
2019-05-11T12:40:19.961Z,12.13
2019-05-11T12:42:49.320Z,18.82
2019-05-11T12:45:20.218Z,16.25
2019-05-11T12:47:49.797Z,13.58
2019-05-11T12:50:20.473Z,17.35
2019-05-11T12:52:50.237Z,13.40
2019-05-11T12:55:21.276Z,15.80
2019-05-11T12:57:50.634Z,17.80
2019-05-11T13:00:20.005Z,13.58
2019-05-11T13:02:49.336Z,17.23
2019-05-11T13:05:18.781Z,14.78
2019-05-11T13:07:48.486Z,13.90
2019-05-11T13:10:19.301Z,13.60
2019-05-11T13:12:49.491Z,12.53
2019-05-11T13:15:19.928Z,10.48
2019-05-11T13:17:49.429Z,11.95
2019-05-11T13:20:18.835Z,12.90
2019-05-11T13:22:49.061Z,11.60
2019-05-11T13:25:18.688Z,15.60
2019-05-11T13:27:49.132Z,11.48
2019-05-11T13:30:19.324Z,14.80
2019-05-11T13:32:49.192Z,17.95
2019-05-11T13:35:18.760Z,11.08
2019-05-11T13:37:48.187Z,15.05
2019-05-11T13:40:18.454Z,13.40
2019-05-11T13:42:49.262Z,14.50
2019-05-11T13:45:18.983Z,12.45
2019-05-11T13:47:55.227Z,13.32
2019-05-11T13:50:20.005Z,13.22
2019-05-11T13:52:49.716Z,12.28
2019-05-11T13:55:19.034Z,11.03
2019-05-11T13:57:48.751Z,10.35
2019-05-11T14:00:20.509Z,12.98
2019-05-11T14:02:49.952Z,9.48
2019-05-11T14:05:19.331Z,14.03
2019-05-11T14:07:48.635Z,15.28
2019-05-11T14:10:18.272Z,14.33
2019-05-11T14:12:48.313Z,11.55
2019-05-11T14:15:19.170Z,11.28
2019-05-11T14:17:48.892Z,10.35
2019-05-11T14:20:20.249Z,12.78
2019-05-11T14:22:49.606Z,11.93
2019-05-11T14:25:19.008Z,9.35
2019-05-11T14:27:48.333Z,9.48
2019-05-11T14:30:20.946Z,11.30
2019-05-11T14:32:50.252Z,15.23
2019-05-11T14:35:19.600Z,13.43
2019-05-11T14:37:48.985Z,14.28
2019-05-11T14:40:18.334Z,10.63
2019-05-11T14:42:48.927Z,12.50
2019-05-11T14:45:19.043Z,11.15
2019-05-11T14:47:48.644Z,12.05
2019-05-11T14:50:18.962Z,11.00
2019-05-11T14:52:49.308Z,11.53
2019-05-11T14:55:19.065Z,14.00
2019-05-11T14:57:48.833Z,9.88
2019-05-11T15:00:18.944Z,12.90
2019-05-11T15:02:49.824Z,9.73
2019-05-11T15:05:22.763Z,13.35
2019-05-11T15:07:53.067Z,12.43
2019-05-11T15:10:23.232Z,9.68
2019-05-11T15:12:52.536Z,11.33
2019-05-11T15:15:21.988Z,10.10
2019-05-11T15:17:51.330Z,11.73
2019-05-11T15:20:20.847Z,9.93
2019-05-11T15:22:50.138Z,9.65
2019-05-11T15:25:20.054Z,12.18
2019-05-11T15:27:49.796Z,8.03
2019-05-11T15:30:20.014Z,10.15
2019-05-11T15:32:49.396Z,10.48
2019-05-11T15:35:19.186Z,9.43
2019-05-11T15:37:49.818Z,10.88
2019-05-11T15:40:21.362Z,9.43
2019-05-11T15:42:50.712Z,8.38
2019-05-11T15:45:20.648Z,10.53
2019-05-11T15:47:49.986Z,9.48
2019-05-11T15:50:20.906Z,12.00
2019-05-11T15:52:50.528Z,10.08
2019-05-11T15:55:21.430Z,9.63
2019-05-11T15:57:50.728Z,7.95
2019-05-11T16:00:20.822Z,6.87
2019-05-11T16:02:50.423Z,12.30
2019-05-11T16:05:20.646Z,8.43
2019-05-11T16:07:50.022Z,7.90
2019-05-11T16:10:20.197Z,9.23
2019-05-11T16:12:49.495Z,8.63
2019-05-11T16:15:19.804Z,7.35
2019-05-11T16:17:50.306Z,7.00
2019-05-11T16:20:20.118Z,13.78
2019-05-11T16:22:49.412Z,9.18
2019-05-11T16:25:20.096Z,7.70
2019-05-11T16:27:50.038Z,9.55
2019-05-11T16:30:21.739Z,7.80
2019-05-11T16:32:52.261Z,8.50
2019-05-11T16:35:21.563Z,8.80
2019-05-11T16:37:50.901Z,8.75
2019-05-11T16:40:21.925Z,9.78
2019-05-11T16:42:51.294Z,7.75
2019-05-11T16:45:23.892Z,8.00
2019-05-11T16:47:52.050Z,9.08
2019-05-11T16:50:21.346Z,7.92
2019-05-11T16:52:50.650Z,5.87
2019-05-11T16:55:20.045Z,5.85
2019-05-11T16:57:50.210Z,6.87
2019-05-11T17:00:21.348Z,12.68
2019-05-11T17:02:50.933Z,9.83
2019-05-11T17:05:26.278Z,6.95
2019-05-11T17:07:51.916Z,8.20
2019-05-11T17:10:21.505Z,6.50
2019-05-11T17:12:50.840Z,10.00
2019-05-11T17:15:20.332Z,7.37
2019-05-11T17:17:50.113Z,9.38
2019-05-11T17:20:21.309Z,6.75
2019-05-11T17:22:53.693Z,8.73
2019-05-11T17:25:21.815Z,6.33
2019-05-11T17:27:53.025Z,8.78
2019-05-11T17:30:22.720Z,7.53
2019-05-11T17:32:52.327Z,5.53
2019-05-11T17:35:21.937Z,6.40
2019-05-11T17:37:51.241Z,8.80
2019-05-11T17:40:23.548Z,6.50
2019-05-11T17:42:53.991Z,10.20
2019-05-11T17:45:23.022Z,9.80
2019-05-11T17:47:52.323Z,9.95
2019-05-11T17:50:21.680Z,7.25
2019-05-11T17:52:50.973Z,9.03
2019-05-11T17:55:20.276Z,6.47
2019-05-11T17:57:53.388Z,9.05
2019-05-11T18:00:21.277Z,7.05
2019-05-11T18:02:50.885Z,7.58
2019-05-11T18:05:20.205Z,9.23
2019-05-11T18:07:49.588Z,5.37
2019-05-11T18:10:19.330Z,7.67
2019-05-11T18:12:48.983Z,6.55
2019-05-11T18:15:19.419Z,7.37
2019-05-11T18:17:49.054Z,7.92
2019-05-11T18:20:22.028Z,11.68
2019-05-11T18:22:50.070Z,8.10
2019-05-11T18:25:19.370Z,8.73
2019-05-11T18:27:48.679Z,9.50
2019-05-11T18:30:18.066Z,8.38
2019-05-11T18:32:48.996Z,13.45
2019-05-11T18:35:19.909Z,8.40
2019-05-11T18:37:54.094Z,8.30
2019-05-11T18:40:23.385Z,7.05
2019-05-11T18:42:52.775Z,7.67
2019-05-11T18:45:22.065Z,9.35
2019-05-11T18:47:51.488Z,8.35
2019-05-11T18:50:30.434Z,6.85
2019-05-11T18:52:51.858Z,8.70
2019-05-11T18:55:21.152Z,7.15
2019-05-11T18:57:50.536Z,12.55
2019-05-11T19:00:22.095Z,10.13
2019-05-11T19:02:51.392Z,6.47
2019-05-11T19:05:20.996Z,8.03
2019-05-11T19:07:50.297Z,7.35
2019-05-11T19:10:19.687Z,9.30
2019-05-11T19:12:49.206Z,8.70
2019-05-11T19:15:19.340Z,7.53
2019-05-11T19:17:49.352Z,6.80
2019-05-11T19:20:19.191Z,6.42
2019-05-11T19:22:51.527Z,6.15
2019-05-11T19:25:20.841Z,14.03
2019-05-11T19:27:50.744Z,10.00
2019-05-11T19:30:20.654Z,9.23
2019-05-11T19:32:50.119Z,7.30
2019-05-11T19:35:21.182Z,7.12
2019-05-11T19:37:50.810Z,8.23
2019-05-11T19:40:20.107Z,9.53
2019-05-11T19:42:58.768Z,10.05
2019-05-11T19:45:29.410Z,7.08
2019-05-11T19:47:58.655Z,7.75
2019-05-11T19:50:27.995Z,7.62
2019-05-11T19:52:57.986Z,7.03
2019-05-11T19:55:28.515Z,9.00
2019-05-11T19:57:58.620Z,6.87
2019-05-11T20:00:28.002Z,8.73
2019-05-11T20:02:58.605Z,8.65
2019-05-11T20:05:28.904Z,7.87
2019-05-11T20:07:58.842Z,8.68
2019-05-11T20:10:29.626Z,11.50
2019-05-11T20:12:59.061Z,7.47
2019-05-11T20:15:28.333Z,7.97
2019-05-11T20:17:58.705Z,8.08
2019-05-11T20:20:28.526Z,6.60
2019-05-11T20:22:58.583Z,6.47
2019-05-11T20:25:28.999Z,6.78
2019-05-11T20:27:58.732Z,6.80
2019-05-11T20:30:28.024Z,5.17
2019-05-11T20:32:57.327Z,8.18
2019-05-11T20:35:27.924Z,10.78
2019-05-11T20:37:58.111Z,7.15
2019-05-11T20:40:28.581Z,6.95
2019-05-11T20:42:58.845Z,7.55
2019-05-11T20:45:28.785Z,9.45
2019-05-11T20:47:58.192Z,8.58
2019-05-11T20:50:27.486Z,6.67
2019-05-11T20:52:58.242Z,10.53
2019-05-11T20:55:28.391Z,6.62
2019-05-11T20:57:58.488Z,7.08
2019-05-11T21:00:28.134Z,6.87
2019-05-11T21:02:58.793Z,7.53
2019-05-11T21:05:29.121Z,8.70
2019-05-11T21:07:58.709Z,6.03
2019-05-11T21:10:28.347Z,7.47
2019-05-11T21:12:57.862Z,7.20
2019-05-11T21:15:28.172Z,8.20
2019-05-11T21:17:58.669Z,9.78
2019-05-11T21:20:28.684Z,10.93
2019-05-11T21:22:58.473Z,10.18
2019-05-11T21:25:28.719Z,7.83
2019-05-11T21:27:58.233Z,6.45
2019-05-11T21:30:27.911Z,7.58
2019-05-11T21:32:58.194Z,5.35
2019-05-11T21:35:28.222Z,7.05
2019-05-11T21:37:58.069Z,6.37
2019-05-11T21:40:29.028Z,5.33
2019-05-11T21:42:58.578Z,6.85
2019-05-11T21:45:28.402Z,9.95
2019-05-11T21:47:58.168Z,10.45
2019-05-11T21:50:28.048Z,6.92
2019-05-11T21:52:59.028Z,6.50
2019-05-11T21:55:29.254Z,7.37
2019-05-11T21:57:59.022Z,6.58
2019-05-11T22:00:33.228Z,6.53
2019-05-11T22:03:03.269Z,6.17
2019-05-11T22:05:32.573Z,7.58
2019-05-11T22:08:01.943Z,6.97
2019-05-11T22:10:31.568Z,6.83
2019-05-11T22:13:02.485Z,8.28
2019-05-11T22:15:31.821Z,7.40
2019-05-11T22:18:01.118Z,6.62
2019-05-11T22:20:30.412Z,8.68
2019-05-11T22:22:59.838Z,8.63
2019-05-11T22:25:29.403Z,9.00
2019-05-11T22:27:58.707Z,12.45
2019-05-11T22:30:28.071Z,7.92
2019-05-11T22:32:58.391Z,9.40
2019-05-11T22:35:28.618Z,7.30
2019-05-11T22:37:58.868Z,8.23
2019-05-11T22:40:28.364Z,8.55
2019-05-11T22:43:00.824Z,8.53
2019-05-11T22:45:28.942Z,8.23
2019-05-11T22:47:58.591Z,6.67
2019-05-11T22:50:29.035Z,5.95
2019-05-11T22:52:58.710Z,5.90
2019-05-11T22:55:27.988Z,6.28
2019-05-11T22:57:57.876Z,6.37
2019-05-11T23:00:45.623Z,10.15
2019-05-11T23:03:14.980Z,7.30
2019-05-11T23:05:44.284Z,10.03
2019-05-11T23:08:13.622Z,7.45
2019-05-11T23:10:42.912Z,6.55
2019-05-11T23:13:12.256Z,7.92
2019-05-11T23:15:41.592Z,8.28
2019-05-11T23:18:10.859Z,7.83
2019-05-11T23:20:40.275Z,7.37
2019-05-11T23:23:09.830Z,10.20
2019-05-11T23:25:39.117Z,6.37
2019-05-11T23:28:08.462Z,9.45
2019-05-11T23:30:38.885Z,5.58
2019-05-11T23:33:08.712Z,6.17
2019-05-11T23:38:06.720Z,8.70
2019-05-11T23:40:37.983Z,8.58
2019-05-11T23:43:08.627Z,8.10
2019-05-11T23:45:38.498Z,7.47
2019-05-11T23:48:07.949Z,6.92
2019-05-11T23:50:38.611Z,8.55
2019-05-11T23:53:10.240Z,10.48
2019-05-11T23:55:39.256Z,6.30
2019-05-11T23:58:08.826Z,6.10
